Thompson Falls, Montana
Current Conditions -  °F | °C
As of 11:17 PM on Tuesday 21 Oct 2014 (Local Time) from KMLP Reporting Station
Overcast Overcast  
Wind Chill: 31°   Ceiling: 1000
Heat Index: 35°   Visibility: 10mi
Dew Point: 33°   Wind: 5mph
Humidity: 92%   Direction: 230°SW
Pressure: 30.01"   Gusts: NA
Location:  47.6°N, 115.34°W
Report Text: KMLP 220517Z AUTO 23004KT 10SM FEW006 BKN010 OVC016 02/01 A3001 RMK AO2 CIG 008V012 T00170006
Loading
Personal Weather Stations






























Interactive Weather Map
Tropical Storm Tracking
New forecast layout! Learn more

10-Day Weather Forecast

Advertisements
Track Severe Weather on mobile